createdAt,value
2022-09-21T00:00:11.489Z,96250
2022-09-21T00:01:21.173Z,96256
2022-09-21T00:02:28.879Z,96250
2022-09-21T00:03:37.514Z,96256
2022-09-21T00:04:47.187Z,96249
2022-09-21T00:05:54.841Z,96243
2022-09-21T00:07:03.496Z,96247
2022-09-21T00:08:12.207Z,96253
2022-09-21T00:09:21.871Z,96252
2022-09-21T00:10:31.558Z,96253
2022-09-21T00:11:40.216Z,96253
2022-09-21T00:12:48.907Z,96248
2022-09-21T00:13:58.574Z,96258
2022-09-21T00:15:08.245Z,96254
2022-09-21T00:16:17.084Z,96254
2022-09-21T00:17:26.628Z,96253
2022-09-21T00:18:35.283Z,96254
2022-09-21T00:19:44.960Z,96255
2022-09-21T00:20:53.618Z,96256
2022-09-21T00:22:02.277Z,96258
2022-09-21T00:23:11.927Z,96255
2022-09-21T00:24:20.592Z,96255
2022-09-21T00:25:30.303Z,96255
2022-09-21T00:26:38.963Z,96258
2022-09-21T00:27:47.604Z,96255
2022-09-21T00:28:57.306Z,96255
2022-09-21T00:30:05.910Z,96254
2022-09-21T00:31:14.636Z,96255
2022-09-21T00:32:24.297Z,96252
2022-09-21T00:33:31.927Z,96252
2022-09-21T00:34:41.585Z,96255
2022-09-21T00:35:51.262Z,96258
2022-09-21T00:37:00.956Z,96257
2022-09-21T00:38:09.617Z,96258
2022-09-21T00:39:19.287Z,96258
2022-09-21T00:40:28.018Z,96252
2022-09-21T00:41:36.624Z,96251
2022-09-21T00:42:45.299Z,96258
2022-09-21T00:43:53.993Z,96261
2022-09-21T00:45:02.602Z,96256
2022-09-21T00:46:11.250Z,96254
2022-09-21T00:47:20.901Z,96255
2022-09-21T00:48:29.619Z,96253
2022-09-21T00:49:38.230Z,96252
2022-09-21T00:50:47.939Z,96253
2022-09-21T00:51:57.626Z,96254
2022-09-21T00:53:06.285Z,96252
2022-09-21T00:54:14.970Z,96249
2022-09-21T00:55:23.627Z,96253
2022-09-21T00:56:33.316Z,96255
2022-09-21T00:57:42.980Z,96257
2022-09-21T00:58:52.613Z,96255
2022-09-21T01:00:02.518Z,96256
2022-09-21T01:01:10.321Z,96257
2022-09-21T01:02:19.016Z,96258
2022-09-21T01:03:28.636Z,96256
2022-09-21T01:04:37.342Z,96251
2022-09-21T01:05:46.966Z,96254
2022-09-21T01:06:54.623Z,96255
2022-09-21T01:08:04.331Z,96252
2022-09-21T01:09:13.992Z,96254
2022-09-21T01:10:21.765Z,96253
2022-09-21T01:11:30.425Z,96254
2022-09-21T01:12:39.102Z,96254
2022-09-21T01:13:48.747Z,96258
2022-09-21T01:14:58.394Z,96253
2022-09-21T01:16:06.071Z,96250
2022-09-21T01:17:14.727Z,96257
2022-09-21T01:18:24.387Z,96255
2022-09-21T01:19:33.036Z,96255
2022-09-21T01:20:41.711Z,96257
2022-09-21T01:21:51.340Z,96255
2022-09-21T01:23:00.037Z,96259
2022-09-21T01:24:09.695Z,96258
2022-09-21T01:25:18.336Z,96260
2022-09-21T01:26:27.999Z,96258
2022-09-21T01:27:35.677Z,96259
2022-09-21T01:28:44.353Z,96258
2022-09-21T01:29:54.032Z,96259
2022-09-21T01:31:01.697Z,96259
2022-09-21T01:32:11.363Z,96259
2022-09-21T01:33:20.019Z,96256
2022-09-21T01:34:29.680Z,96257
2022-09-21T01:35:39.348Z,96257
2022-09-21T01:36:48.044Z,96252
2022-09-21T01:37:57.679Z,96253
2022-09-21T01:39:07.338Z,96258
2022-09-21T01:40:15.200Z,96255
2022-09-21T01:41:23.841Z,96252
2022-09-21T01:42:32.520Z,96254
2022-09-21T01:43:41.188Z,96256
2022-09-21T01:44:50.856Z,96255
2022-09-21T01:45:59.575Z,96253
2022-09-21T01:47:09.212Z,96256
2022-09-21T01:48:18.877Z,96256
2022-09-21T01:49:25.529Z,96253
2022-09-21T01:50:34.232Z,96256
2022-09-21T01:51:42.891Z,96257
2022-09-21T01:52:52.571Z,96249
2022-09-21T01:54:02.219Z,96253
2022-09-21T01:55:11.877Z,96254
2022-09-21T01:56:20.594Z,96252
2022-09-21T01:57:30.303Z,96257
2022-09-21T01:58:38.998Z,96256
2022-09-21T01:59:47.703Z,96251
2022-09-21T02:00:56.474Z,96255
2022-09-21T02:02:05.137Z,96254
2022-09-21T02:03:14.816Z,96257
2022-09-21T02:04:22.483Z,96256
2022-09-21T02:05:31.125Z,96254
2022-09-21T02:06:40.775Z,96252
2022-09-21T02:07:50.428Z,96253
2022-09-21T02:09:00.135Z,96257
2022-09-21T02:10:09.793Z,96256
2022-09-21T02:11:19.464Z,96256
2022-09-21T02:12:29.137Z,96252
2022-09-21T02:13:36.790Z,96252
2022-09-21T02:14:45.470Z,96245
2022-09-21T02:15:55.167Z,96251
2022-09-21T02:17:03.785Z,96251
2022-09-21T02:18:12.477Z,96247
2022-09-21T02:19:21.144Z,96250
2022-09-21T02:20:29.797Z,96250
2022-09-21T02:21:39.460Z,96250
2022-09-21T02:22:47.107Z,96245
2022-09-21T02:23:56.751Z,96243
2022-09-21T02:25:05.447Z,96245
2022-09-21T02:26:14.116Z,96241
2022-09-21T02:27:23.828Z,96245
2022-09-21T02:28:32.484Z,96242
2022-09-21T02:29:42.135Z,96242
2022-09-21T02:30:51.789Z,96242
2022-09-21T02:32:00.491Z,96243
2022-09-21T02:33:09.152Z,96241
2022-09-21T02:34:18.832Z,96241
2022-09-21T02:35:27.504Z,96246
2022-09-21T02:36:36.154Z,96253
2022-09-21T02:37:45.840Z,96249
2022-09-21T02:38:55.492Z,96244
2022-09-21T02:40:05.219Z,96246
2022-09-21T02:41:13.854Z,96253
2022-09-21T02:42:22.486Z,96252
2022-09-21T02:43:32.304Z,96253
2022-09-21T02:44:39.943Z,96252
2022-09-21T02:45:48.597Z,96257
2022-09-21T02:46:57.268Z,96254
2022-09-21T02:48:06.899Z,96254
2022-09-21T02:49:16.629Z,96253
2022-09-21T02:50:24.287Z,96255
2022-09-21T02:51:33.963Z,96252
2022-09-21T02:52:43.638Z,96252
2022-09-21T02:53:51.300Z,96249
2022-09-21T02:55:00.006Z,96250
2022-09-21T02:56:09.706Z,96250
2022-09-21T02:57:18.406Z,96247
2022-09-21T02:58:28.033Z,96255
2022-09-21T02:59:36.705Z,96252
2022-09-21T03:00:46.442Z,96250
2022-09-21T03:01:56.092Z,96252
2022-09-21T03:03:03.763Z,96254
2022-09-21T03:04:12.427Z,96258
2022-09-21T03:05:21.083Z,96255
2022-09-21T03:06:29.755Z,96255
2022-09-21T03:07:39.425Z,96257
2022-09-21T03:08:48.104Z,96254
2022-09-21T03:09:56.740Z,96254
2022-09-21T03:11:06.412Z,96254
2022-09-21T03:12:16.175Z,96256
2022-09-21T03:13:24.864Z,96256
2022-09-21T03:14:34.487Z,96256
2022-09-21T03:15:43.208Z,96252
2022-09-21T03:16:52.783Z,96253
2022-09-21T03:18:02.487Z,96253
2022-09-21T03:19:12.143Z,96263
2022-09-21T03:20:21.805Z,96256
2022-09-21T03:21:30.467Z,96259
2022-09-21T03:22:41.131Z,96261
2022-09-21T03:23:48.813Z,96265
2022-09-21T03:24:58.477Z,96264
2022-09-21T03:26:06.136Z,96263
2022-09-21T03:27:15.787Z,96264
2022-09-21T03:28:25.447Z,96263
2022-09-21T03:29:35.155Z,96262
2022-09-21T03:30:43.777Z,96264
2022-09-21T03:31:53.450Z,96263
2022-09-21T03:33:03.116Z,96266
2022-09-21T03:34:11.786Z,96267
2022-09-21T03:35:21.464Z,96266
2022-09-21T03:36:30.114Z,96271
2022-09-21T03:37:41.361Z,96267
2022-09-21T03:38:48.434Z,96269
2022-09-21T03:39:58.115Z,96269
2022-09-21T03:41:07.753Z,96268
2022-09-21T03:42:16.436Z,96265
2022-09-21T03:43:25.088Z,96268
2022-09-21T03:44:33.762Z,96265
2022-09-21T03:45:42.429Z,96268
2022-09-21T03:46:52.315Z,96261
2022-09-21T03:48:00.063Z,96262
2022-09-21T03:49:08.760Z,96260
2022-09-21T03:50:18.373Z,96262
2022-09-21T03:51:27.017Z,96258
2022-09-21T03:52:36.700Z,96258
2022-09-21T03:53:45.364Z,96263
2022-09-21T03:54:55.015Z,96260
2022-09-21T03:56:04.687Z,96259
2022-09-21T03:57:13.334Z,96260
2022-09-21T03:58:22.056Z,96257
2022-09-21T03:59:31.699Z,96259
2022-09-21T04:00:40.362Z,96254
2022-09-21T04:01:49.079Z,96257
2022-09-21T04:02:58.736Z,96255
2022-09-21T04:04:07.391Z,96259
2022-09-21T04:05:17.065Z,96259
2022-09-21T04:06:24.709Z,96262
2022-09-21T04:07:33.366Z,96265
2022-09-21T04:08:43.791Z,96260
2022-09-21T04:09:50.705Z,96270
2022-09-21T04:11:00.362Z,96264
2022-09-21T04:12:10.017Z,96267
2022-09-21T04:13:19.668Z,96266
2022-09-21T04:14:29.333Z,96268
2022-09-21T04:15:37.053Z,96267
2022-09-21T04:16:46.691Z,96269
2022-09-21T04:17:56.374Z,96270
2022-09-21T04:19:06.139Z,96272
2022-09-21T04:20:14.696Z,96268
2022-09-21T04:21:23.382Z,96269
2022-09-21T04:22:32.041Z,96276
2022-09-21T04:23:42.762Z,96273
2022-09-21T04:24:50.420Z,96271
2022-09-21T04:25:59.079Z,96275
2022-09-21T04:27:08.780Z,96271
2022-09-21T04:28:16.439Z,96272
2022-09-21T04:29:27.111Z,96269
2022-09-21T04:30:37.872Z,96271
2022-09-21T04:31:45.418Z,96276
2022-09-21T04:32:55.138Z,96271
2022-09-21T04:34:03.866Z,96271
2022-09-21T04:35:13.540Z,96270
2022-09-21T04:36:23.169Z,96271
2022-09-21T04:37:32.818Z,96271
2022-09-21T04:38:41.510Z,96273
2022-09-21T04:39:50.155Z,96279
2022-09-21T04:40:58.850Z,96276
2022-09-21T04:42:08.633Z,96277
2022-09-21T04:43:20.778Z,96276
2022-09-21T04:44:26.966Z,96283
2022-09-21T04:45:36.669Z,96279
2022-09-21T04:46:45.324Z,96274
2022-09-21T04:47:54.000Z,96279
2022-09-21T04:49:02.765Z,96281
2022-09-21T04:50:13.328Z,96285
2022-09-21T04:51:22.998Z,96277
2022-09-21T04:52:32.743Z,96282
2022-09-21T04:53:41.399Z,96279
2022-09-21T04:54:51.061Z,96284
2022-09-21T04:55:58.755Z,96288
2022-09-21T04:57:07.420Z,96285
2022-09-21T04:58:16.075Z,96287
2022-09-21T04:59:26.721Z,96286
2022-09-21T05:00:36.384Z,96287
2022-09-21T05:01:44.117Z,96287
2022-09-21T05:02:52.727Z,96291
2022-09-21T05:04:02.401Z,96293
2022-09-21T05:05:12.071Z,96295
2022-09-21T05:06:20.772Z,96301
2022-09-21T05:07:30.453Z,96302
2022-09-21T05:08:39.115Z,96302
2022-09-21T05:09:48.770Z,96305
2022-09-21T05:10:56.422Z,96306
2022-09-21T05:12:06.105Z,96303
2022-09-21T05:13:19.685Z,96304
2022-09-21T05:14:24.439Z,96307
2022-09-21T05:15:33.134Z,96312
2022-09-21T05:16:41.809Z,96310
2022-09-21T05:17:50.466Z,96308
2022-09-21T05:18:59.170Z,96308
2022-09-21T05:20:05.817Z,96307
2022-09-21T05:21:15.491Z,96309
2022-09-21T05:22:24.182Z,96311
2022-09-21T05:23:32.800Z,96316
2022-09-21T05:24:42.595Z,96314
2022-09-21T05:25:50.240Z,96315
2022-09-21T05:26:58.889Z,96317
2022-09-21T05:28:07.557Z,96320
2022-09-21T05:29:16.194Z,96317
2022-09-21T05:30:25.919Z,96318
2022-09-21T05:31:33.589Z,96317
2022-09-21T05:32:43.213Z,96323
2022-09-21T05:33:52.881Z,96321
2022-09-21T05:35:00.538Z,96321
2022-09-21T05:36:10.218Z,96320
2022-09-21T05:37:19.887Z,96324
2022-09-21T05:38:28.572Z,96325
2022-09-21T05:39:38.204Z,96324
2022-09-21T05:40:46.887Z,96323
2022-09-21T05:41:55.587Z,96322
2022-09-21T05:43:05.257Z,96327
2022-09-21T05:44:12.957Z,96326
2022-09-21T05:45:21.624Z,96328
2022-09-21T05:46:29.279Z,96328
2022-09-21T05:47:37.951Z,96329
2022-09-21T05:48:47.679Z,96325
2022-09-21T05:49:55.325Z,96326
2022-09-21T05:51:03.982Z,96326
2022-09-21T05:52:13.650Z,96328
2022-09-21T05:53:22.488Z,96323
2022-09-21T05:54:32.231Z,96320
2022-09-21T05:55:41.902Z,96322
2022-09-21T05:56:49.550Z,96319
2022-09-21T05:57:59.221Z,96317
2022-09-21T05:59:07.911Z,96320
2022-09-21T06:00:17.571Z,96321
2022-09-21T06:01:27.249Z,96325
2022-09-21T06:02:35.951Z,96329
2022-09-21T06:03:44.562Z,96327
2022-09-21T06:04:53.237Z,96326
2022-09-21T06:06:02.930Z,96325
2022-09-21T06:07:12.599Z,96331
2022-09-21T06:08:21.255Z,96335
2022-09-21T06:09:29.914Z,96330
2022-09-21T06:10:40.614Z,96326
2022-09-21T06:11:48.239Z,96325
2022-09-21T06:12:56.887Z,96329
2022-09-21T06:14:06.731Z,96330
2022-09-21T06:15:16.258Z,96324
2022-09-21T06:16:26.036Z,96326
2022-09-21T06:17:33.755Z,96325
2022-09-21T06:18:42.548Z,96326
2022-09-21T06:19:52.183Z,96322
2022-09-21T06:20:59.844Z,96324
2022-09-21T06:22:08.521Z,96326
2022-09-21T06:23:17.242Z,96329
2022-09-21T06:24:25.916Z,96332
2022-09-21T06:25:35.572Z,96331
2022-09-21T06:26:44.313Z,96330
2022-09-21T06:27:52.972Z,96337
2022-09-21T06:29:02.682Z,96334
2022-09-21T06:30:10.390Z,96334
2022-09-21T06:31:19.076Z,96329
2022-09-21T06:32:29.755Z,96331
2022-09-21T06:33:39.448Z,96335
2022-09-21T06:34:49.130Z,96330
2022-09-21T06:35:57.791Z,96334
2022-09-21T06:37:07.557Z,96337
2022-09-21T06:38:17.222Z,96336
2022-09-21T06:39:25.923Z,96341
2022-09-21T06:40:34.617Z,96336
2022-09-21T06:41:43.241Z,96333
2022-09-21T06:42:51.922Z,96333
2022-09-21T06:44:01.563Z,96339
2022-09-21T06:45:09.260Z,96339
2022-09-21T06:46:17.933Z,96339
2022-09-21T06:47:26.572Z,96341
2022-09-21T06:48:35.221Z,96342
2022-09-21T06:49:42.902Z,96347
2022-09-21T06:50:52.590Z,96343
2022-09-21T06:52:01.240Z,96344
2022-09-21T06:53:10.898Z,96344
2022-09-21T06:54:18.604Z,96344
2022-09-21T06:55:27.296Z,96348
2022-09-21T06:56:37.237Z,96346
2022-09-21T06:57:46.900Z,96353
2022-09-21T06:58:55.618Z,96353
2022-09-21T07:00:05.261Z,96348
2022-09-21T07:01:14.031Z,96348
2022-09-21T07:02:23.573Z,96347
2022-09-21T07:03:31.233Z,96349
2022-09-21T07:04:39.887Z,96349
2022-09-21T07:05:49.541Z,96351
2022-09-21T07:06:59.815Z,96347
2022-09-21T07:10:04.798Z,96347
2022-09-21T07:10:29.212Z,96353
2022-09-21T07:11:38.888Z,96353
2022-09-21T07:12:48.558Z,96358
2022-09-21T07:13:57.333Z,96360
2022-09-21T07:15:06.931Z,96357
2022-09-21T07:16:15.611Z,96358
2022-09-21T07:17:23.242Z,96362
2022-09-21T07:18:42.412Z,96363
2022-09-21T07:19:40.524Z,96361
2022-09-21T07:20:50.179Z,96356
2022-09-21T07:21:58.834Z,96359
2022-09-21T07:23:08.504Z,96361
2022-09-21T07:24:17.178Z,96361
2022-09-21T07:25:26.875Z,96363
2022-09-21T07:26:35.536Z,96360
2022-09-21T07:27:43.218Z,96365
2022-09-21T07:28:52.906Z,96365
2022-09-21T07:30:00.608Z,96364
2022-09-21T07:31:10.371Z,96362
2022-09-21T07:32:20.058Z,96368
2022-09-21T07:33:31.651Z,96369
2022-09-21T07:34:39.405Z,96363
2022-09-21T07:35:49.057Z,96371
2022-09-21T07:36:57.014Z,96368
2022-09-21T07:38:05.670Z,96371
2022-09-21T07:39:15.343Z,96372
2022-09-21T07:40:25.270Z,96370
2022-09-21T07:41:33.719Z,96369
2022-09-21T07:42:42.427Z,96366
2022-09-21T07:43:51.251Z,96368
2022-09-21T07:45:04.636Z,96366
2022-09-21T07:46:10.644Z,96369
2022-09-21T07:47:20.277Z,96368
2022-09-21T07:48:28.973Z,96368
2022-09-21T07:49:37.634Z,96372
2022-09-21T07:50:47.314Z,96372
2022-09-21T07:51:58.160Z,96371
2022-09-21T07:53:04.580Z,96374
2022-09-21T07:54:14.277Z,96371
2022-09-21T07:55:21.924Z,96371
2022-09-21T07:56:31.578Z,96373
2022-09-21T07:57:41.231Z,96373
2022-09-21T07:58:49.891Z,96370
2022-09-21T07:59:59.820Z,96373
2022-09-21T08:01:07.565Z,96373
2022-09-21T08:02:16.301Z,96377
2022-09-21T08:03:25.838Z,96381
2022-09-21T08:04:35.503Z,96372
2022-09-21T08:05:44.199Z,96375
2022-09-21T08:06:52.902Z,96379
2022-09-21T08:08:01.598Z,96373
2022-09-21T08:09:11.357Z,96376
2022-09-21T08:10:21.069Z,96379
2022-09-21T08:11:29.760Z,96379
2022-09-21T08:12:39.412Z,96377
2022-09-21T08:13:48.089Z,96383
2022-09-21T08:14:57.764Z,96377
2022-09-21T08:16:07.473Z,96379
2022-09-21T08:17:17.115Z,96382
2022-09-21T08:18:25.861Z,96376
2022-09-21T08:19:35.551Z,96376
2022-09-21T08:20:44.210Z,96375
2022-09-21T08:21:57.418Z,96379
2022-09-21T08:23:02.583Z,96377
2022-09-21T08:24:12.331Z,96378
2022-09-21T08:25:20.990Z,96377
2022-09-21T08:26:30.687Z,96375
2022-09-21T08:27:40.363Z,96370
2022-09-21T08:28:49.107Z,96378
2022-09-21T08:29:58.803Z,96377
2022-09-21T08:31:08.555Z,96379
2022-09-21T08:32:33.244Z,96376
2022-09-21T08:33:29.390Z,96378
2022-09-21T08:34:36.574Z,96380
2022-09-21T08:35:46.247Z,96374
2022-09-21T08:36:56.071Z,96379
2022-09-21T08:38:04.640Z,96380
2022-09-21T08:39:13.306Z,96379
2022-09-21T08:40:23.140Z,96380
2022-09-21T08:41:31.643Z,96383
2022-09-21T08:42:41.336Z,96389
2022-09-21T08:43:50.982Z,96386
2022-09-21T08:45:00.645Z,96392
2022-09-21T08:46:10.348Z,96388
2022-09-21T08:47:19.016Z,96390
2022-09-21T08:48:32.042Z,96387
2022-09-21T08:49:39.412Z,96387
2022-09-21T08:50:47.963Z,96392
2022-09-21T08:51:56.670Z,96392
2022-09-21T08:53:05.343Z,96391
2022-09-21T08:54:15.016Z,96391
2022-09-21T08:55:24.665Z,96392
2022-09-21T08:56:47.314Z,96392
2022-09-21T08:57:41.968Z,96394
2022-09-21T08:58:51.639Z,96393
2022-09-21T09:00:00.345Z,96391
2022-09-21T09:01:09.141Z,96388
2022-09-21T09:02:17.757Z,96393
2022-09-21T09:03:27.549Z,96393
2022-09-21T09:04:37.234Z,96390
2022-09-21T09:05:44.944Z,96387
2022-09-21T09:06:54.593Z,96386
2022-09-21T09:08:04.287Z,96388
2022-09-21T09:09:11.995Z,96383
2022-09-21T09:10:21.764Z,96383
2022-09-21T09:11:30.380Z,96383
2022-09-21T09:12:40.020Z,96386
2022-09-21T09:13:49.699Z,96385
2022-09-21T09:14:57.375Z,96382
2022-09-21T09:16:07.088Z,96382
2022-09-21T09:17:16.696Z,96385
2022-09-21T09:18:26.358Z,96382
2022-09-21T09:19:36.024Z,96385
2022-09-21T09:20:45.722Z,96382
2022-09-21T09:21:54.396Z,96379
2022-09-21T09:23:04.036Z,96384
2022-09-21T09:24:13.683Z,96383
2022-09-21T09:25:23.385Z,96389
2022-09-21T09:26:31.193Z,96384
2022-09-21T09:27:39.826Z,96384
2022-09-21T09:28:52.975Z,96383
2022-09-21T09:30:02.114Z,96377
2022-09-21T09:31:07.818Z,96381
2022-09-21T09:32:17.482Z,96380
2022-09-21T09:33:26.145Z,96385
2022-09-21T09:34:35.816Z,96382
2022-09-21T09:35:45.511Z,96379
2022-09-21T09:36:58.601Z,96377
2022-09-21T09:38:05.032Z,96378
2022-09-21T09:39:12.649Z,96373
2022-09-21T09:40:22.382Z,96376
2022-09-21T09:41:32.074Z,96371
2022-09-21T09:42:40.748Z,96370
2022-09-21T09:43:50.452Z,96375
2022-09-21T09:44:58.132Z,96375
2022-09-21T09:46:10.559Z,96373
2022-09-21T09:47:17.476Z,96367
2022-09-21T09:48:26.152Z,96367
2022-09-21T09:49:34.859Z,96365
2022-09-21T09:50:43.559Z,96364
2022-09-21T09:51:52.216Z,96362
2022-09-21T09:53:01.912Z,96361
2022-09-21T09:54:10.373Z,96361
2022-09-21T09:55:18.362Z,96360
2022-09-21T09:56:29.073Z,96359
2022-09-21T09:57:36.742Z,96359
2022-09-21T09:58:45.585Z,96357
2022-09-21T09:59:54.772Z,96362
2022-09-21T10:01:03.953Z,96353
2022-09-21T10:02:13.868Z,96358
2022-09-21T10:03:21.474Z,96358
2022-09-21T10:04:31.207Z,96355
2022-09-21T10:05:40.857Z,96353
2022-09-21T10:06:49.702Z,96350
2022-09-21T10:07:58.364Z,96349
2022-09-21T10:09:07.047Z,96349
2022-09-21T10:10:16.738Z,96347
2022-09-21T10:11:26.397Z,96346
2022-09-21T10:12:36.148Z,96353
2022-09-21T10:13:44.827Z,96348
2022-09-21T10:14:54.534Z,96343
2022-09-21T10:16:02.246Z,96345
2022-09-21T10:17:11.930Z,96347
2022-09-21T10:18:20.627Z,96348
2022-09-21T10:19:29.290Z,96347
2022-09-21T10:20:38.975Z,96345
2022-09-21T10:21:49.997Z,96349
2022-09-21T10:22:56.283Z,96343
2022-09-21T10:24:06.242Z,96343
2022-09-21T10:25:15.745Z,96336
2022-09-21T10:26:24.439Z,96339
2022-09-21T10:27:34.089Z,96335
2022-09-21T10:28:42.750Z,96330
2022-09-21T10:29:52.439Z,96334
2022-09-21T10:31:00.182Z,96335
2022-09-21T10:32:13.774Z,96332
2022-09-21T10:33:19.427Z,96332
2022-09-21T10:34:27.129Z,96330
2022-09-21T10:35:35.845Z,96330
2022-09-21T10:36:44.547Z,96328
2022-09-21T10:37:53.224Z,96329
2022-09-21T10:39:02.905Z,96329
2022-09-21T10:40:10.628Z,96326
2022-09-21T10:41:19.314Z,96330
2022-09-21T10:42:29.032Z,96327
2022-09-21T10:43:41.282Z,96324
2022-09-21T10:44:46.363Z,96323
2022-09-21T10:45:55.163Z,96319
2022-09-21T10:47:03.718Z,96320
2022-09-21T10:48:14.402Z,96323
2022-09-21T10:49:22.115Z,96322
2022-09-21T10:50:30.786Z,96316
2022-09-21T10:51:40.478Z,96324
2022-09-21T10:52:48.192Z,96321
2022-09-21T10:53:56.873Z,96321
2022-09-21T10:55:05.575Z,96319
2022-09-21T10:56:16.571Z,96318
2022-09-21T10:57:24.988Z,96319
2022-09-21T10:58:32.700Z,96320
2022-09-21T10:59:41.395Z,96313
2022-09-21T11:00:51.090Z,96318
2022-09-21T11:01:59.882Z,96318
2022-09-21T11:03:08.474Z,96323
2022-09-21T11:04:17.184Z,96318
2022-09-21T11:05:26.890Z,96324
2022-09-21T11:06:36.584Z,96316
2022-09-21T11:07:44.252Z,96313
2022-09-21T11:08:52.888Z,96311
2022-09-21T11:10:02.729Z,96309
2022-09-21T11:11:10.372Z,96314
2022-09-21T11:12:19.050Z,96310
2022-09-21T11:13:27.762Z,96311
2022-09-21T11:14:36.486Z,96307
2022-09-21T11:15:46.200Z,96315
2022-09-21T11:16:54.816Z,96311
2022-09-21T11:18:04.504Z,96307
2022-09-21T11:19:12.173Z,96310
2022-09-21T11:20:21.864Z,96307
2022-09-21T11:21:31.603Z,96306
2022-09-21T11:22:39.362Z,96304
2022-09-21T11:23:48.053Z,96310
2022-09-21T11:24:56.708Z,96303
2022-09-21T11:26:06.380Z,96303
2022-09-21T11:27:16.099Z,96303
2022-09-21T11:28:24.765Z,96306
2022-09-21T11:29:33.449Z,96303
2022-09-21T11:30:43.168Z,96299
2022-09-21T11:31:52.784Z,96302
2022-09-21T11:33:01.474Z,96299
2022-09-21T11:34:11.161Z,96293
2022-09-21T11:35:19.846Z,96292
2022-09-21T11:36:29.584Z,96299
2022-09-21T11:37:38.258Z,96288
2022-09-21T11:38:46.991Z,96285
2022-09-21T11:39:56.673Z,96290
2022-09-21T11:41:06.363Z,96291
2022-09-21T11:42:16.052Z,96288
2022-09-21T11:43:24.748Z,96283
2022-09-21T11:44:34.380Z,96286
2022-09-21T11:45:47.201Z,96286
2022-09-21T11:46:53.771Z,96285
2022-09-21T11:48:02.398Z,96279
2022-09-21T11:49:13.104Z,96279
2022-09-21T11:50:30.115Z,96278
2022-09-21T11:51:30.413Z,96281
2022-09-21T11:52:39.103Z,96276
2022-09-21T11:53:47.836Z,96275
2022-09-21T11:54:57.522Z,96274
2022-09-21T11:56:07.237Z,96274
2022-09-21T11:57:15.905Z,96268
2022-09-21T11:58:25.584Z,96261
2022-09-21T11:59:35.251Z,96265
2022-09-21T12:00:43.966Z,96265
2022-09-21T12:01:52.675Z,96271
2022-09-21T12:03:01.359Z,96272
2022-09-21T12:04:11.010Z,96269
2022-09-21T12:05:19.673Z,96271
2022-09-21T12:06:28.377Z,96268
2022-09-21T12:07:38.078Z,96257
2022-09-21T12:08:45.777Z,96263
2022-09-21T12:09:54.465Z,96256
2022-09-21T12:11:03.178Z,96253
2022-09-21T12:12:11.873Z,96258
2022-09-21T12:13:21.784Z,96259
2022-09-21T12:14:29.495Z,96261
2022-09-21T12:15:39.125Z,96259
2022-09-21T12:16:47.858Z,96260
2022-09-21T12:17:56.460Z,96259
2022-09-21T12:19:06.348Z,96257
2022-09-21T12:20:15.852Z,96257
2022-09-21T12:21:24.630Z,96254
2022-09-21T12:22:34.283Z,96251
2022-09-21T12:23:41.954Z,96248
2022-09-21T12:24:51.676Z,96252
2022-09-21T12:26:00.335Z,96248
2022-09-21T12:27:09.994Z,96256
2022-09-21T12:28:18.690Z,96258
2022-09-21T12:29:28.391Z,96257
2022-09-21T12:30:37.132Z,96254
2022-09-21T12:31:46.770Z,96256
2022-09-21T12:32:55.468Z,96253
2022-09-21T12:34:05.263Z,96245
2022-09-21T12:35:14.843Z,96251
2022-09-21T12:36:22.504Z,96248
2022-09-21T12:37:31.169Z,96245
2022-09-21T12:38:39.943Z,96238
2022-09-21T12:39:49.611Z,96245
2022-09-21T12:40:59.284Z,96240
2022-09-21T12:42:08.003Z,96243
2022-09-21T12:43:17.711Z,96241
2022-09-21T12:44:27.385Z,96243
2022-09-21T12:45:35.166Z,96243
2022-09-21T12:46:43.734Z,96236
2022-09-21T12:47:53.429Z,96238
2022-09-21T12:49:02.172Z,96235
2022-09-21T12:50:11.837Z,96239
2022-09-21T12:51:20.526Z,96240
2022-09-21T12:52:29.170Z,96238
2022-09-21T12:53:38.947Z,96239
2022-09-21T12:54:48.599Z,96233
2022-09-21T12:55:58.301Z,96234
2022-09-21T12:57:17.841Z,96238
2022-09-21T12:58:18.735Z,96235
2022-09-21T12:59:28.449Z,96237
2022-09-21T13:00:35.114Z,96243
2022-09-21T13:01:43.903Z,96239
2022-09-21T13:02:54.494Z,96230
2022-09-21T13:04:03.204Z,96237
2022-09-21T13:05:11.875Z,96232
2022-09-21T13:06:20.582Z,96231
2022-09-21T13:07:29.253Z,96239
2022-09-21T13:08:38.948Z,96234
2022-09-21T13:09:47.591Z,96236
2022-09-21T13:10:56.270Z,96233
2022-09-21T13:12:05.937Z,96223
2022-09-21T13:13:15.697Z,96233
2022-09-21T13:14:25.429Z,96233
2022-09-21T13:15:33.113Z,96232
2022-09-21T13:16:41.912Z,96232
2022-09-21T13:17:50.614Z,96227
2022-09-21T13:18:59.292Z,96231
2022-09-21T13:20:08.964Z,96231
2022-09-21T13:21:16.627Z,96236
2022-09-21T13:22:25.362Z,96229
2022-09-21T13:23:35.071Z,96228
2022-09-21T13:24:43.737Z,96226
2022-09-21T13:25:52.383Z,96227
2022-09-21T13:27:01.067Z,96228
2022-09-21T13:28:10.866Z,96230
2022-09-21T13:29:20.547Z,96227
2022-09-21T13:30:28.220Z,96233
2022-09-21T13:31:40.678Z,96229
2022-09-21T13:32:47.529Z,96227
2022-09-21T13:33:55.224Z,96230
2022-09-21T13:35:04.906Z,96234
2022-09-21T13:36:13.559Z,96229
2022-09-21T13:37:22.220Z,96228
2022-09-21T13:38:31.921Z,96221
2022-09-21T13:39:39.683Z,96217
2022-09-21T13:40:48.390Z,96223
2022-09-21T13:42:03.044Z,96218
2022-09-21T13:43:07.668Z,96222
2022-09-21T13:44:17.347Z,96218
2022-09-21T13:45:26.101Z,96217
2022-09-21T13:46:34.777Z,96218
2022-09-21T13:47:44.441Z,96218
2022-09-21T13:48:53.090Z,96216
2022-09-21T13:50:02.795Z,96213
2022-09-21T13:51:12.482Z,96213
2022-09-21T13:52:21.161Z,96208
2022-09-21T13:53:29.838Z,96208
2022-09-21T13:54:38.514Z,96205
2022-09-21T13:55:47.303Z,96214
2022-09-21T13:56:55.945Z,96205
2022-09-21T13:58:06.594Z,96208
2022-09-21T13:59:15.263Z,96209
2022-09-21T14:00:24.649Z,96206
2022-09-21T14:01:48.943Z,96201
2022-09-21T14:02:43.347Z,96202
2022-09-21T14:03:51.949Z,96202
2022-09-21T14:05:00.614Z,96201
2022-09-21T14:06:10.283Z,96198
2022-09-21T14:07:19.936Z,96201
2022-09-21T14:08:29.679Z,96202
2022-09-21T14:09:39.349Z,96204
2022-09-21T14:10:48.082Z,96204
2022-09-21T14:11:57.826Z,96203
2022-09-21T14:13:07.500Z,96199
2022-09-21T14:14:16.182Z,96203
2022-09-21T14:15:25.864Z,96200
2022-09-21T14:16:35.543Z,96203
2022-09-21T14:17:45.198Z,96200
2022-09-21T14:18:54.859Z,96202
2022-09-21T14:20:03.759Z,96206
2022-09-21T14:21:12.440Z,96207
2022-09-21T14:22:21.133Z,96201
2022-09-21T14:23:29.796Z,96203
2022-09-21T14:24:39.477Z,96199
2022-09-21T14:25:48.171Z,96199
2022-09-21T14:26:59.791Z,96199
2022-09-21T14:28:07.549Z,96197
2022-09-21T14:29:16.183Z,96201
2022-09-21T14:30:24.968Z,96204
2022-09-21T14:31:33.655Z,96205
2022-09-21T14:32:42.303Z,96197
2022-09-21T14:33:51.984Z,96198
2022-09-21T14:34:59.639Z,96198
2022-09-21T14:36:08.276Z,96198
2022-09-21T14:37:16.968Z,96197
2022-09-21T14:38:26.609Z,96193
2022-09-21T14:39:35.275Z,96195
2022-09-21T14:40:44.004Z,96194
2022-09-21T14:41:53.608Z,96200
2022-09-21T14:43:03.327Z,96201
2022-09-21T14:44:11.018Z,96198
2022-09-21T14:45:20.677Z,96201
2022-09-21T14:46:30.441Z,96201
2022-09-21T14:47:38.043Z,96197
2022-09-21T14:48:47.758Z,96202
2022-09-21T14:49:57.414Z,96199